createdAt,value
2022-08-08T00:01:07.923Z,28.20
2022-08-08T00:03:47.378Z,28.20
2022-08-08T00:06:34.246Z,28.20
2022-08-08T00:09:08.186Z,28.20
2022-08-08T00:11:57.890Z,28.20
2022-08-08T00:14:58.680Z,28.20
2022-08-08T00:18:01.871Z,28.20
2022-08-08T00:20:34.025Z,28.20
2022-08-08T00:23:08.461Z,28.20
2022-08-08T00:25:46.218Z,28.20
2022-08-08T00:28:35.606Z,28.20
2022-08-08T00:32:28.904Z,28.20
2022-08-08T00:34:31.154Z,28.20
2022-08-08T00:37:45.251Z,28.20
2022-08-08T00:41:10.512Z,28.20
2022-08-08T00:43:40.946Z,28.20
2022-08-08T00:46:32.180Z,28.20
2022-08-08T00:49:59.454Z,28.20
2022-08-08T00:52:51.375Z,28.20
2022-08-08T00:55:54.084Z,28.20
2022-08-08T00:58:39.431Z,28.10
2022-08-08T01:01:29.212Z,28.10
2022-08-08T01:04:52.360Z,28.10
2022-08-08T01:08:04.033Z,28.10
2022-08-08T01:11:02.969Z,28.10
2022-08-08T01:14:06.460Z,28.10
2022-08-08T01:17:01.888Z,28.10
2022-08-08T01:20:16.817Z,28.10
2022-08-08T01:24:06.159Z,28.10
2022-08-08T01:26:49.314Z,28.10
2022-08-08T01:29:58.779Z,28.10
2022-08-08T01:33:28.028Z,28.10
2022-08-08T01:36:48.698Z,28.10
2022-08-08T01:39:34.900Z,28.10
2022-08-08T01:42:14.890Z,28.10
2022-08-08T01:45:00.351Z,28.10
2022-08-08T01:48:03.652Z,28.10
2022-08-08T01:50:54.740Z,28.10
2022-08-08T01:54:33.733Z,28.10
2022-08-08T01:56:38.621Z,28.10
2022-08-08T02:00:03.096Z,28.10
2022-08-08T02:03:56.060Z,28.10
2022-08-08T02:06:32.599Z,28.10
2022-08-08T02:09:18.059Z,28.10
2022-08-08T02:11:59.548Z,28.10
2022-08-08T02:14:56.028Z,28.10
2022-08-08T02:17:36.800Z,28.10
2022-08-08T02:21:03.295Z,28.10
2022-08-08T02:23:31.681Z,28.10
2022-08-08T02:26:10.199Z,28.10
2022-08-08T02:28:54.813Z,28.10
2022-08-08T02:31:58.053Z,28.10
2022-08-08T02:35:07.861Z,28.10
2022-08-08T02:37:56.726Z,28.10
2022-08-08T02:40:40.431Z,28.10
2022-08-08T02:44:42.371Z,28.10
2022-08-08T02:46:50.530Z,28.10
2022-08-08T02:49:51.234Z,28.10
2022-08-08T02:52:51.074Z,28.10
2022-08-08T02:56:14.024Z,28.10
2022-08-08T02:59:36.884Z,28.10
2022-08-08T03:02:40.016Z,28.10
2022-08-08T03:05:53.447Z,28.10
2022-08-08T03:09:09.415Z,28.10
2022-08-08T03:12:36.763Z,28.10
2022-08-08T03:16:01.581Z,28.10
2022-08-08T03:18:15.162Z,28.10
2022-08-08T03:20:58.698Z,28.10
2022-08-08T03:23:56.341Z,28.10
2022-08-08T03:26:31.056Z,28.10
2022-08-08T03:29:16.790Z,28.10
2022-08-08T03:32:08.689Z,28.10
2022-08-08T03:34:40.047Z,28.10
2022-08-08T03:38:00.095Z,28.10
2022-08-08T03:40:02.348Z,28.10
2022-08-08T03:42:32.499Z,28.10
2022-08-08T03:46:02.761Z,28.10
2022-08-08T03:47:58.589Z,28.10
2022-08-08T03:50:28.258Z,28.10
2022-08-08T03:52:57.025Z,28.10
2022-08-08T03:55:57.241Z,28.10
2022-08-08T03:58:35.256Z,28.10
2022-08-08T04:01:23.166Z,28.10
2022-08-08T04:03:58.835Z,28.10
2022-08-08T04:06:31.455Z,28.10
2022-08-08T04:09:10.611Z,28.10
2022-08-08T04:11:58.601Z,28.10
2022-08-08T04:14:41.058Z,28.10
2022-08-08T04:17:22.891Z,28.10
2022-08-08T04:20:01.987Z,28.10
2022-08-08T04:22:32.299Z,28.10
2022-08-08T04:25:02.577Z,28.10
2022-08-08T04:28:02.862Z,28.10
2022-08-08T04:30:21.560Z,28.10
2022-08-08T04:32:53.464Z,28.10
2022-08-08T04:35:24.518Z,28.10
2022-08-08T04:37:54.387Z,28.10
2022-08-08T04:40:26.995Z,28.10
2022-08-08T04:43:01.090Z,28.10
2022-08-08T04:45:35.065Z,28.10
2022-08-08T04:48:05.100Z,28.10
2022-08-08T04:50:38.594Z,28.10
2022-08-08T04:53:52.007Z,28.10
2022-08-08T04:55:59.186Z,28.00
2022-08-08T04:58:33.171Z,27.90
2022-08-08T05:01:05.881Z,27.80
2022-08-08T05:04:09.076Z,27.70
2022-08-08T05:06:29.482Z,27.60
2022-08-08T05:09:02.251Z,27.50
2022-08-08T05:11:38.587Z,27.40
2022-08-08T05:14:12.419Z,27.30
2022-08-08T05:16:53.188Z,27.20
2022-08-08T05:20:11.495Z,27.20
2022-08-08T05:22:18.883Z,27.10
2022-08-08T05:24:50.068Z,27.10
2022-08-08T05:27:21.927Z,27.00
2022-08-08T05:29:53.828Z,27.00
2022-08-08T05:32:29.896Z,27.00
2022-08-08T05:35:05.099Z,26.90
2022-08-08T05:37:52.504Z,26.90
2022-08-08T05:40:28.476Z,26.90
2022-08-08T05:43:17.109Z,26.90
2022-08-08T05:46:03.035Z,26.90
2022-08-08T05:48:34.677Z,26.90
2022-08-08T05:51:15.069Z,26.90
2022-08-08T05:54:26.082Z,26.90
2022-08-08T05:56:42.373Z,26.90
2022-08-08T06:00:00.214Z,26.90
2022-08-08T06:02:34.462Z,26.90
2022-08-08T06:05:24.301Z,26.90
2022-08-08T06:08:02.088Z,26.90
2022-08-08T06:10:32.969Z,26.90
2022-08-08T06:13:02.076Z,26.80
2022-08-08T06:15:53.301Z,26.80
2022-08-08T06:18:26.593Z,26.70
2022-08-08T06:20:57.260Z,26.70
2022-08-08T06:23:52.434Z,26.60
2022-08-08T06:26:38.855Z,26.60
2022-08-08T06:29:26.467Z,26.60
2022-08-08T06:32:10.829Z,26.50
2022-08-08T06:34:56.455Z,26.50
2022-08-08T06:37:44.849Z,26.50
2022-08-08T06:40:16.925Z,26.50
2022-08-08T06:42:54.820Z,26.50
2022-08-08T06:45:28.145Z,26.60
2022-08-08T06:48:01.425Z,26.70
2022-08-08T06:50:38.429Z,26.70
2022-08-08T06:53:17.404Z,26.80
2022-08-08T06:56:00.743Z,26.90
2022-08-08T06:58:33.101Z,27.00
2022-08-08T07:02:11.690Z,27.00
2022-08-08T07:04:39.618Z,27.00
2022-08-08T07:06:51.379Z,27.10
2022-08-08T07:09:21.862Z,27.20
2022-08-08T07:11:58.627Z,27.20
2022-08-08T07:14:43.880Z,27.20
2022-08-08T07:17:40.034Z,27.30
2022-08-08T07:20:19.108Z,27.30
2022-08-08T07:23:01.814Z,27.30
2022-08-08T07:25:32.391Z,27.30
2022-08-08T07:28:07.933Z,27.40
2022-08-08T07:30:38.698Z,27.40
2022-08-08T07:33:10.091Z,27.40
2022-08-08T07:35:38.837Z,27.50
2022-08-08T07:38:20.426Z,27.50
2022-08-08T07:41:04.249Z,27.50
2022-08-08T07:43:37.101Z,27.50
2022-08-08T07:46:23.280Z,27.50
2022-08-08T07:48:59.687Z,27.50
2022-08-08T07:51:44.680Z,27.60
2022-08-08T07:54:31.918Z,27.60
2022-08-08T07:57:16.856Z,27.60
2022-08-08T07:59:54.820Z,27.60
2022-08-08T08:02:36.188Z,27.60
2022-08-08T08:05:15.509Z,27.60
2022-08-08T08:07:47.601Z,27.60
2022-08-08T08:10:33.412Z,27.70
2022-08-08T08:13:25.817Z,27.70
2022-08-08T08:16:12.288Z,27.70
2022-08-08T08:18:52.058Z,27.70
2022-08-08T08:21:44.841Z,27.70
2022-08-08T08:24:30.587Z,27.70
2022-08-08T08:27:03.638Z,27.70
2022-08-08T08:29:32.733Z,27.70
2022-08-08T08:32:05.891Z,27.70
2022-08-08T08:34:36.721Z,27.70
2022-08-08T08:37:11.774Z,27.70
2022-08-08T08:40:01.012Z,27.80
2022-08-08T08:42:35.529Z,27.80
2022-08-08T08:45:21.885Z,27.80
2022-08-08T08:47:54.502Z,27.80
2022-08-08T08:50:32.668Z,27.80
2022-08-08T08:53:55.195Z,27.80
2022-08-08T08:56:03.126Z,27.80
2022-08-08T08:58:42.043Z,27.80
2022-08-08T09:01:15.341Z,27.80
2022-08-08T09:03:50.905Z,27.80
2022-08-08T09:06:34.181Z,27.80
2022-08-08T09:09:26.040Z,27.80
2022-08-08T09:12:10.256Z,27.80
2022-08-08T09:14:45.252Z,27.90
2022-08-08T09:17:19.667Z,27.90
2022-08-08T09:22:00.318Z,27.90
2022-08-08T09:22:49.727Z,27.90
2022-08-08T09:25:22.643Z,27.90
2022-08-08T09:27:58.121Z,27.90
2022-08-08T09:30:34.609Z,27.90
2022-08-08T09:33:54.964Z,27.90
2022-08-08T09:35:53.837Z,27.90
2022-08-08T09:38:52.655Z,27.90
2022-08-08T09:41:54.745Z,27.90
2022-08-08T09:44:34.446Z,27.90
2022-08-08T09:48:02.385Z,27.90
2022-08-08T09:50:03.359Z,27.90
2022-08-08T09:52:58.288Z,27.90
2022-08-08T09:55:31.302Z,27.90
2022-08-08T09:58:25.877Z,27.90
2022-08-08T10:01:00.327Z,27.90
2022-08-08T10:03:33.852Z,28.00
2022-08-08T10:06:17.504Z,28.00
2022-08-08T10:08:46.702Z,28.00
2022-08-08T10:12:22.431Z,28.00
2022-08-08T10:14:07.394Z,28.00
2022-08-08T10:16:56.743Z,28.00
2022-08-08T10:19:46.287Z,28.00
2022-08-08T10:22:24.802Z,28.00
2022-08-08T10:24:56.089Z,28.10
2022-08-08T10:27:28.253Z,28.10
2022-08-08T10:30:04.729Z,28.10
2022-08-08T10:32:34.052Z,28.10
2022-08-08T10:35:11.647Z,28.10
2022-08-08T10:37:54.280Z,28.10
2022-08-08T10:40:23.633Z,28.10
2022-08-08T10:43:01.893Z,28.10
2022-08-08T10:45:30.533Z,28.10
2022-08-08T10:48:11.724Z,28.10
2022-08-08T10:50:42.632Z,28.20
2022-08-08T10:53:12.870Z,28.20
2022-08-08T10:55:46.559Z,28.20
2022-08-08T10:58:15.628Z,28.20
2022-08-08T11:00:53.578Z,28.20
2022-08-08T11:04:00.826Z,28.30
2022-08-08T11:06:34.194Z,28.30
2022-08-08T11:09:03.772Z,28.30
2022-08-08T11:12:04.571Z,28.30
2022-08-08T11:14:34.917Z,28.40
2022-08-08T11:17:05.010Z,28.40
2022-08-08T11:19:36.469Z,28.40
2022-08-08T11:22:07.678Z,28.40
2022-08-08T11:24:36.796Z,28.40
2022-08-08T11:27:19.691Z,28.40
2022-08-08T11:30:04.125Z,28.40
2022-08-08T11:32:40.146Z,28.50
2022-08-08T11:35:24.517Z,28.50
2022-08-08T11:38:35.946Z,28.50
2022-08-08T11:40:51.693Z,28.50
2022-08-08T11:43:24.564Z,28.50
2022-08-08T11:46:10.055Z,28.50
2022-08-08T11:48:47.203Z,28.50
2022-08-08T11:51:30.848Z,28.50
2022-08-08T11:54:27.466Z,28.50
2022-08-08T11:56:56.431Z,28.50
2022-08-08T12:00:00.343Z,28.50
2022-08-08T12:02:36.967Z,28.50
2022-08-08T12:05:12.370Z,28.50
2022-08-08T12:07:51.606Z,28.50
2022-08-08T12:10:23.729Z,28.50
2022-08-08T12:13:01.137Z,28.50
2022-08-08T12:15:42.091Z,28.60
2022-08-08T12:18:21.603Z,28.60
2022-08-08T12:20:54.351Z,28.60
2022-08-08T12:23:30.423Z,28.60
2022-08-08T12:26:16.790Z,28.60
2022-08-08T12:28:56.865Z,28.70
2022-08-08T12:31:39.486Z,28.70
2022-08-08T12:34:41.785Z,28.70
2022-08-08T12:37:13.069Z,28.70
2022-08-08T12:40:02.168Z,28.70
2022-08-08T12:42:33.168Z,28.70
2022-08-08T12:45:11.584Z,28.70
2022-08-08T12:48:09.835Z,28.70
2022-08-08T12:50:48.898Z,28.60
2022-08-08T12:53:30.128Z,28.60
2022-08-08T12:56:17.641Z,28.60
2022-08-08T12:58:54.311Z,28.60
2022-08-08T13:01:34.849Z,28.60
2022-08-08T13:04:18.559Z,28.60
2022-08-08T13:07:02.988Z,28.60
2022-08-08T13:09:43.212Z,28.60
2022-08-08T13:12:29.521Z,28.60
2022-08-08T13:15:02.210Z,28.60
2022-08-08T13:18:10.169Z,28.60
2022-08-08T13:20:21.928Z,28.60
2022-08-08T13:22:51.627Z,28.60
2022-08-08T13:25:27.292Z,28.60
2022-08-08T13:27:56.808Z,28.50
2022-08-08T13:30:29.871Z,28.50
2022-08-08T13:33:01.176Z,28.50
2022-08-08T13:35:38.605Z,28.50
2022-08-08T13:38:13.567Z,28.50
2022-08-08T13:40:45.018Z,28.50
2022-08-08T13:43:16.253Z,28.50
2022-08-08T13:45:47.436Z,28.50
2022-08-08T13:48:17.315Z,28.50
2022-08-08T13:50:57.805Z,28.50
2022-08-08T13:53:53.265Z,28.50
2022-08-08T13:56:44.555Z,28.50
2022-08-08T13:59:32.856Z,28.50
2022-08-08T14:02:07.493Z,28.50
2022-08-08T14:04:38.456Z,28.40
2022-08-08T14:07:22.674Z,28.50
2022-08-08T14:10:04.637Z,28.50
2022-08-08T14:12:43.734Z,28.50
2022-08-08T14:15:31.610Z,28.40
2022-08-08T14:18:34.923Z,28.50
2022-08-08T14:21:03.344Z,28.50
2022-08-08T14:24:06.608Z,28.40
2022-08-08T14:26:29.176Z,28.50
2022-08-08T14:29:01.666Z,28.40
2022-08-08T14:32:05.947Z,28.50
2022-08-08T14:34:27.748Z,28.50
2022-08-08T14:36:57.526Z,28.50
2022-08-08T14:39:48.155Z,28.50
2022-08-08T14:42:13.037Z,28.50
2022-08-08T14:44:54.722Z,28.50
2022-08-08T14:47:23.364Z,28.50
2022-08-08T14:50:10.571Z,28.50
2022-08-08T14:52:46.424Z,28.50
2022-08-08T14:55:16.418Z,28.50
2022-08-08T14:58:03.176Z,28.50
2022-08-08T15:00:38.626Z,28.50
2022-08-08T15:03:14.317Z,28.50
2022-08-08T15:05:54.296Z,28.50
2022-08-08T15:08:35.007Z,28.50
2022-08-08T15:11:09.185Z,28.50
2022-08-08T15:14:00.838Z,28.50
2022-08-08T15:16:28.319Z,28.50
2022-08-08T15:18:56.048Z,28.50
2022-08-08T15:21:27.597Z,28.50
2022-08-08T15:23:58.382Z,28.50
2022-08-08T15:26:28.929Z,28.50
2022-08-08T15:28:58.198Z,28.50
2022-08-08T15:32:03.954Z,28.50
2022-08-08T15:34:29.860Z,28.60
2022-08-08T15:37:03.289Z,28.60
2022-08-08T15:39:38.540Z,28.60
2022-08-08T15:42:13.003Z,28.60
2022-08-08T15:44:42.429Z,28.60
2022-08-08T15:47:16.191Z,28.60
2022-08-08T15:49:48.169Z,28.60
2022-08-08T15:52:20.813Z,28.60
2022-08-08T15:54:51.675Z,28.60
2022-08-08T15:57:21.144Z,28.60
2022-08-08T16:00:12.134Z,28.60
2022-08-08T16:02:44.217Z,28.60
2022-08-08T16:05:19.823Z,28.60
2022-08-08T16:07:52.625Z,28.60
2022-08-08T16:13:11.832Z,28.60
2022-08-08T16:13:28.553Z,28.60
2022-08-08T16:16:17.142Z,28.60
2022-08-08T16:18:56.828Z,28.60
2022-08-08T16:21:31.665Z,28.60
2022-08-08T16:24:02.915Z,28.60
2022-08-08T16:26:35.244Z,28.60
2022-08-08T16:29:08.201Z,28.70
2022-08-08T16:31:40.176Z,28.70
2022-08-08T16:34:08.822Z,28.70
2022-08-08T16:36:36.994Z,28.70
2022-08-08T16:39:09.648Z,28.70
2022-08-08T16:41:54.748Z,28.70
2022-08-08T16:44:33.928Z,28.70
2022-08-08T16:47:21.677Z,28.70
2022-08-08T16:50:01.254Z,28.70
2022-08-08T16:55:24.038Z,28.70
2022-08-08T16:55:42.864Z,28.70
2022-08-08T16:58:14.496Z,28.70
2022-08-08T17:00:49.024Z,28.70
2022-08-08T17:03:24.898Z,28.70
2022-08-08T17:06:03.176Z,28.70
2022-08-08T17:08:31.620Z,28.70
2022-08-08T17:11:10.481Z,28.70
2022-08-08T17:13:50.343Z,28.70
2022-08-08T17:16:26.737Z,28.70
2022-08-08T17:18:56.613Z,28.70
2022-08-08T17:21:26.447Z,28.70
2022-08-08T17:24:00.575Z,28.70
2022-08-08T17:26:32.836Z,28.70
2022-08-08T17:29:04.318Z,28.70
2022-08-08T17:31:45.289Z,28.70
2022-08-08T17:34:53.906Z,28.70
2022-08-08T17:37:09.018Z,28.70
2022-08-08T17:40:03.572Z,28.70
2022-08-08T17:42:28.501Z,28.70
2022-08-08T17:44:58.060Z,28.70
2022-08-08T17:47:28.003Z,28.70
2022-08-08T17:50:07.327Z,28.70
2022-08-08T17:52:37.416Z,28.70
2022-08-08T17:55:09.387Z,28.70
2022-08-08T17:57:56.314Z,28.70
2022-08-08T18:00:30.610Z,28.70
2022-08-08T18:03:08.417Z,28.70
2022-08-08T18:05:49.516Z,28.70
2022-08-08T18:08:25.114Z,28.70
2022-08-08T18:11:15.488Z,28.70
2022-08-08T18:13:47.257Z,28.70
2022-08-08T18:16:16.847Z,28.70
2022-08-08T18:18:53.691Z,28.70
2022-08-08T18:21:25.032Z,28.70
2022-08-08T18:24:17.278Z,28.70
2022-08-08T18:26:53.412Z,28.70
2022-08-08T18:29:29.750Z,28.70
2022-08-08T18:32:03.690Z,28.70
2022-08-08T18:34:33.325Z,28.80
2022-08-08T18:37:02.899Z,28.70
2022-08-08T18:39:34.641Z,28.70
2022-08-08T18:42:04.974Z,28.70
2022-08-08T18:44:35.842Z,28.70
2022-08-08T18:47:04.715Z,28.70
2022-08-08T18:49:57.278Z,28.80
2022-08-08T18:52:22.698Z,28.70
2022-08-08T18:54:59.252Z,28.80
2022-08-08T18:57:36.540Z,28.70
2022-08-08T19:00:13.918Z,28.70
2022-08-08T19:02:48.380Z,28.70
2022-08-08T19:05:24.069Z,28.70
2022-08-08T19:07:58.753Z,28.70
2022-08-08T19:10:28.396Z,28.70
2022-08-08T19:12:57.923Z,28.60
2022-08-08T19:15:34.317Z,28.60
2022-08-08T19:18:32.951Z,28.60
2022-08-08T19:20:50.748Z,28.60
2022-08-08T19:23:21.633Z,28.60
2022-08-08T19:26:22.527Z,28.60
2022-08-08T19:28:38.666Z,28.60
2022-08-08T19:31:10.552Z,28.50
2022-08-08T19:34:04.377Z,28.50
2022-08-08T19:36:28.727Z,28.50
2022-08-08T19:38:56.641Z,28.50
2022-08-08T19:41:29.331Z,28.40
2022-08-08T19:44:04.103Z,28.40
2022-08-08T19:46:41.859Z,28.40
2022-08-08T19:49:12.753Z,28.40
2022-08-08T19:51:43.263Z,28.40
2022-08-08T19:54:11.492Z,28.30
2022-08-08T19:56:41.477Z,28.30
2022-08-08T19:59:10.031Z,28.30
2022-08-08T20:02:01.110Z,28.30
2022-08-08T20:04:27.399Z,28.20
2022-08-08T20:06:56.939Z,28.20
2022-08-08T20:09:25.513Z,28.20
2022-08-08T20:11:57.888Z,28.20
2022-08-08T20:14:34.524Z,28.20
2022-08-08T20:17:03.565Z,28.20
2022-08-08T20:19:34.547Z,28.20
2022-08-08T20:22:13.360Z,28.20
2022-08-08T20:24:49.000Z,28.20
2022-08-08T20:27:20.261Z,28.20
2022-08-08T20:29:55.764Z,28.30
2022-08-08T20:32:29.480Z,28.30
2022-08-08T20:35:01.956Z,28.30
2022-08-08T20:37:47.225Z,28.30
2022-08-08T20:40:20.421Z,28.30
2022-08-08T20:43:16.252Z,28.30
2022-08-08T20:45:57.739Z,28.30
2022-08-08T20:48:31.593Z,28.40
2022-08-08T20:51:00.931Z,28.40
2022-08-08T20:53:57.699Z,28.40
2022-08-08T20:56:16.782Z,28.40
2022-08-08T20:58:47.620Z,28.40
2022-08-08T21:01:19.680Z,28.40
2022-08-08T21:03:55.655Z,28.40
2022-08-08T21:06:51.963Z,28.40
2022-08-08T21:09:16.965Z,28.40
2022-08-08T21:11:51.376Z,28.40
2022-08-08T21:14:33.668Z,28.40
2022-08-08T21:17:06.135Z,28.40
2022-08-08T21:19:45.979Z,28.40
2022-08-08T21:22:16.374Z,28.40
2022-08-08T21:24:53.573Z,28.40
2022-08-08T21:27:38.615Z,28.40
2022-08-08T21:30:10.802Z,28.40
2022-08-08T21:32:44.151Z,28.40
2022-08-08T21:36:17.235Z,28.40
2022-08-08T21:38:01.611Z,28.40
2022-08-08T21:40:32.096Z,28.40
2022-08-08T21:42:59.882Z,28.40
2022-08-08T21:48:01.254Z,28.40
2022-08-08T21:48:21.940Z,28.40
2022-08-08T21:50:58.147Z,28.40
2022-08-08T21:54:34.652Z,28.40
2022-08-08T21:56:28.215Z,28.40
2022-08-08T21:59:01.880Z,28.40
2022-08-08T22:01:40.424Z,28.40
2022-08-08T22:04:11.439Z,28.40
2022-08-08T22:06:40.785Z,28.40
2022-08-08T22:09:10.700Z,28.40
2022-08-08T22:12:02.367Z,28.40
2022-08-08T22:14:26.974Z,28.40
2022-08-08T22:16:57.026Z,28.40
2022-08-08T22:19:29.391Z,28.40
2022-08-08T22:21:57.765Z,28.40
2022-08-08T22:24:28.799Z,28.40
2022-08-08T22:27:02.196Z,28.40
2022-08-08T22:29:59.682Z,28.40
2022-08-08T22:32:19.309Z,28.40
2022-08-08T22:34:50.583Z,28.40
2022-08-08T22:37:48.799Z,28.40
2022-08-08T22:40:16.425Z,28.40
2022-08-08T22:42:47.086Z,28.40
2022-08-08T22:45:15.997Z,28.40
2022-08-08T22:47:48.840Z,28.40
2022-08-08T22:50:26.433Z,28.40
2022-08-08T22:54:27.514Z,28.40
2022-08-08T22:55:59.521Z,28.40
2022-08-08T22:58:30.862Z,28.40
2022-08-08T23:00:59.955Z,28.40
2022-08-08T23:03:36.540Z,28.40
2022-08-08T23:06:16.679Z,28.40
2022-08-08T23:08:55.945Z,28.40
2022-08-08T23:12:18.432Z,28.40
2022-08-08T23:14:17.205Z,28.40
2022-08-08T23:16:48.217Z,28.40
2022-08-08T23:19:25.868Z,28.40
2022-08-08T23:21:54.278Z,28.40
2022-08-08T23:24:23.658Z,28.40
2022-08-08T23:26:55.374Z,28.40
2022-08-08T23:29:24.012Z,28.40
2022-08-08T23:31:51.742Z,28.40
2022-08-08T23:34:19.993Z,28.40
2022-08-08T23:36:48.225Z,28.40
2022-08-08T23:39:16.374Z,28.40
2022-08-08T23:41:46.914Z,28.40
2022-08-08T23:44:19.064Z,28.40
2022-08-08T23:49:08.768Z,28.40
2022-08-08T23:49:34.946Z,28.40
2022-08-08T23:52:06.596Z,28.40
2022-08-08T23:54:41.471Z,28.40
2022-08-08T23:57:27.777Z,28.40
